createdAt,value
2022-08-24T00:02:34.266Z,100489
2022-08-24T00:08:25.075Z,100492
2022-08-24T00:14:16.684Z,100495
2022-08-24T00:20:09.091Z,100495
2022-08-24T00:26:00.597Z,100493
2022-08-24T00:31:54.616Z,100486
2022-08-24T00:37:46.248Z,100492
2022-08-24T00:43:38.577Z,100495
2022-08-24T00:49:28.779Z,100485
2022-08-24T00:55:22.536Z,100485
2022-08-24T01:01:13.807Z,100478
2022-08-24T01:07:06.450Z,100475
2022-08-24T01:13:04.883Z,100486
2022-08-24T01:18:54.597Z,100483
2022-08-24T01:24:50.548Z,100487
2022-08-24T01:30:42.864Z,100493
2022-08-24T01:36:33.930Z,100489
2022-08-24T01:42:26.985Z,100484
2022-08-24T01:48:27.569Z,100515
2022-08-24T01:54:17.949Z,100498
2022-08-24T02:00:09.086Z,100498
2022-08-24T02:06:01.691Z,100500
2022-08-24T02:11:54.905Z,100500
2022-08-24T02:17:47.818Z,100500
2022-08-24T02:23:39.076Z,100513
2022-08-24T02:29:30.924Z,100509
2022-08-24T02:35:23.263Z,100518
2022-08-24T02:41:14.729Z,100509
2022-08-24T02:47:06.173Z,100507
2022-08-24T02:52:59.710Z,100512
2022-08-24T02:58:56.383Z,100513
2022-08-24T03:04:52.483Z,100506
2022-08-24T03:10:44.284Z,100515
2022-08-24T03:16:35.247Z,100518
2022-08-24T03:22:25.285Z,100515
2022-08-24T03:28:20.200Z,100518
2022-08-24T03:34:16.532Z,100511
2022-08-24T03:40:07.054Z,100514
2022-08-24T03:46:11.635Z,100513
2022-08-24T03:52:02.699Z,100516
2022-08-24T03:57:52.740Z,100512
2022-08-24T04:03:48.874Z,100516
2022-08-24T04:09:39.811Z,100508
2022-08-24T04:15:32.672Z,100522
2022-08-24T04:21:26.558Z,100520
2022-08-24T04:27:18.577Z,100526
2022-08-24T04:33:08.825Z,100528
2022-08-24T04:39:01.995Z,100528
2022-08-24T04:44:53.087Z,100533
2022-08-24T04:50:46.912Z,100528
2022-08-24T04:56:37.745Z,100536
2022-08-24T05:02:29.505Z,100543
2022-08-24T05:08:31.490Z,100545
2022-08-24T05:14:34.886Z,100551
2022-08-24T05:20:23.856Z,100558
2022-08-24T05:26:16.416Z,100555
2022-08-24T05:32:09.609Z,100551
2022-08-24T05:38:01.092Z,100558
2022-08-24T05:43:53.185Z,100558
2022-08-24T05:49:55.652Z,100567
2022-08-24T05:55:46.526Z,100572
2022-08-24T06:01:45.230Z,100580
2022-08-24T06:07:38.681Z,100583
2022-08-24T06:13:29.798Z,100586
2022-08-24T06:19:20.747Z,100583
2022-08-24T06:25:12.280Z,100597
2022-08-24T06:31:03.976Z,100588
2022-08-24T06:36:57.178Z,100593
2022-08-24T06:42:50.251Z,100597
2022-08-24T06:48:41.383Z,100600
2022-08-24T06:54:32.857Z,100601
2022-08-24T07:00:24.861Z,100602
2022-08-24T07:06:16.793Z,100597
2022-08-24T07:12:08.812Z,100605
2022-08-24T07:18:00.150Z,100608
2022-08-24T07:23:49.948Z,100617
2022-08-24T07:30:32.003Z,100611
2022-08-24T07:36:30.404Z,100613
2022-08-24T07:42:34.121Z,100618
2022-08-24T07:48:23.078Z,100620
2022-08-24T07:54:16.729Z,100619
2022-08-24T08:00:09.969Z,100625
2022-08-24T08:06:01.216Z,100625
2022-08-24T08:11:52.362Z,100636
2022-08-24T08:17:43.993Z,100627
2022-08-24T08:23:49.870Z,100634
2022-08-24T08:29:41.697Z,100638
2022-08-24T08:35:30.245Z,100634
2022-08-24T08:41:29.018Z,100628
2022-08-24T08:47:23.485Z,100637
2022-08-24T08:53:14.417Z,100636
2022-08-24T08:59:08.918Z,100625
2022-08-24T09:05:03.897Z,100632
2022-08-24T09:10:56.226Z,100619
2022-08-24T09:16:49.501Z,100615
2022-08-24T09:22:42.560Z,100616
2022-08-24T09:28:34.960Z,100605
2022-08-24T09:34:28.036Z,100609
2022-08-24T09:40:18.549Z,100603
2022-08-24T09:46:09.720Z,100593
2022-08-24T09:52:02.589Z,100604
2022-08-24T09:58:08.392Z,100596
2022-08-24T10:03:57.697Z,100598
2022-08-24T10:09:46.961Z,100587
2022-08-24T10:15:36.286Z,100581
2022-08-24T10:21:25.447Z,100575
2022-08-24T10:27:14.536Z,100571
2022-08-24T10:33:06.041Z,100573
2022-08-24T10:38:56.763Z,100561
2022-08-24T10:44:50.130Z,100554
2022-08-24T10:50:43.486Z,100547
2022-08-24T10:56:35.800Z,100555
2022-08-24T11:02:28.938Z,100552
2022-08-24T11:08:21.577Z,100540
2022-08-24T11:14:13.007Z,100531
2022-08-24T11:20:05.996Z,100523
2022-08-24T11:25:57.871Z,100524
2022-08-24T11:31:50.952Z,100524
2022-08-24T11:37:42.501Z,100528
2022-08-24T11:43:36.278Z,100513
2022-08-24T11:49:30.535Z,100505
2022-08-24T11:55:27.158Z,100509
2022-08-24T12:01:47.836Z,100504
2022-08-24T12:08:04.142Z,100497
2022-08-24T12:13:54.288Z,100494
2022-08-24T12:19:55.212Z,100489
2022-08-24T12:25:46.486Z,100483
2022-08-24T12:31:46.629Z,100483
2022-08-24T12:37:37.728Z,100480
2022-08-24T12:43:29.111Z,100479
2022-08-24T12:49:20.903Z,100474
2022-08-24T12:55:12.853Z,100466
2022-08-24T13:01:09.064Z,100468
2022-08-24T13:07:13.760Z,100471
2022-08-24T13:13:04.279Z,100463
2022-08-24T13:18:56.226Z,100459
2022-08-24T13:24:48.288Z,100462
2022-08-24T13:30:45.926Z,100456
2022-08-24T13:36:46.572Z,100448
2022-08-24T13:42:38.325Z,100447
2022-08-24T13:48:29.985Z,100445
2022-08-24T13:54:28.580Z,100435
2022-08-24T14:00:22.729Z,100431
2022-08-24T14:06:13.465Z,100428
2022-08-24T14:12:12.244Z,100424
2022-08-24T14:18:05.415Z,100425
2022-08-24T14:23:59.190Z,100414
2022-08-24T14:29:50.571Z,100410
2022-08-24T14:35:42.849Z,100414
2022-08-24T14:41:36.069Z,100413
2022-08-24T14:47:27.344Z,100403
2022-08-24T14:53:20.569Z,100401
2022-08-24T14:59:11.534Z,100405
2022-08-24T15:05:03.036Z,100391
2022-08-24T15:10:54.659Z,100389
2022-08-24T15:16:55.487Z,100385
2022-08-24T16:24:18.326Z,100362
2022-08-24T16:30:34.378Z,100367
2022-08-24T17:46:40.698Z,100382
2022-08-24T17:52:30.437Z,100383
2022-08-24T17:58:21.957Z,100388
2022-08-24T18:04:14.373Z,100393
2022-08-24T18:10:07.623Z,100395
2022-08-24T18:15:57.807Z,100399
2022-08-24T18:21:50.080Z,100399
2022-08-24T18:27:41.793Z,100411
2022-08-24T18:33:37.256Z,100410
2022-08-24T18:39:27.848Z,100419
2022-08-24T18:45:22.150Z,100430
2022-08-24T18:51:15.640Z,100429
2022-08-24T18:57:30.690Z,100434
2022-08-24T19:03:21.263Z,100437
2022-08-24T19:09:13.393Z,100431
2022-08-24T19:15:05.960Z,100430
2022-08-24T19:21:26.872Z,100437
2022-08-24T19:27:18.476Z,100446
2022-08-24T19:33:17.355Z,100435
2022-08-24T19:39:07.471Z,100435
2022-08-24T19:45:03.652Z,100436
2022-08-24T19:50:55.871Z,100435
2022-08-24T19:56:46.176Z,100435
2022-08-24T20:02:37.371Z,100445
2022-08-24T20:08:27.293Z,100438
2022-08-24T20:14:16.819Z,100442
2022-08-24T20:20:08.076Z,100451
2022-08-24T20:26:01.128Z,100456
2022-08-24T20:31:55.173Z,100446
2022-08-24T20:37:48.492Z,100450
2022-08-24T20:43:38.793Z,100454
2022-08-24T20:49:32.371Z,100453
2022-08-24T20:55:22.673Z,100462
2022-08-24T21:01:14.120Z,100469
2022-08-24T21:07:04.005Z,100455
2022-08-24T21:12:55.599Z,100468
2022-08-24T21:18:47.343Z,100465
2022-08-24T21:24:39.684Z,100470
2022-08-24T21:30:27.728Z,100468
2022-08-24T21:36:24.777Z,100469
2022-08-24T21:42:22.936Z,100476
2022-08-24T21:48:14.491Z,100488
2022-08-24T21:54:08.541Z,100490
2022-08-24T21:59:59.520Z,100494
2022-08-24T22:05:52.689Z,100492
2022-08-24T22:11:43.959Z,100502
2022-08-24T22:17:34.211Z,100506
2022-08-24T22:23:24.810Z,100508
2022-08-24T22:29:15.851Z,100505
2022-08-24T22:35:06.800Z,100496
2022-08-24T22:41:00.300Z,100494
2022-08-24T22:46:53.037Z,100501
2022-08-24T22:52:43.057Z,100503
2022-08-24T22:58:34.949Z,100503
2022-08-24T23:04:26.413Z,100497
2022-08-24T23:10:19.556Z,100511
2022-08-24T23:16:10.446Z,100495
2022-08-24T23:22:04.311Z,100500
2022-08-24T23:27:57.404Z,100495
2022-08-24T23:33:49.144Z,100491
2022-08-24T23:39:38.644Z,100489
2022-08-24T23:45:33.113Z,100491
2022-08-24T23:53:49.489Z,100482
2022-08-24T23:59:43.938Z,100493
